createdAt,value
2017-10-16T00:01:08.242Z,12.41
2017-10-16T00:03:40.450Z,12.38
2017-10-16T00:06:13.947Z,12.35
2017-10-16T00:08:45.581Z,12.37
2017-10-16T00:11:16.439Z,12.35
2017-10-16T00:13:47.992Z,12.31
2017-10-16T00:16:19.458Z,12.27
2017-10-16T00:18:50.743Z,12.27
2017-10-16T00:21:22.319Z,12.27
2017-10-16T00:23:54.610Z,12.28
2017-10-16T00:26:26.015Z,12.33
2017-10-16T00:28:57.126Z,12.29
2017-10-16T00:31:27.952Z,12.27
2017-10-16T00:34:00.807Z,12.25
2017-10-16T00:36:32.062Z,12.35
2017-10-16T00:39:03.215Z,12.44
2017-10-16T00:41:35.189Z,12.49
2017-10-16T00:44:06.064Z,12.55
2017-10-16T00:46:38.250Z,12.55
2017-10-16T00:49:17.009Z,12.38
2017-10-16T00:51:48.920Z,12.39
2017-10-16T00:54:24.365Z,12.40
2017-10-16T00:56:56.053Z,12.45
2017-10-16T00:59:29.667Z,12.45
2017-10-16T01:02:00.716Z,12.45
2017-10-16T01:04:32.314Z,12.37
2017-10-16T01:07:03.691Z,12.32
2017-10-16T01:09:35.783Z,12.31
2017-10-16T01:12:12.166Z,12.31
2017-10-16T01:14:48.500Z,12.34
2017-10-16T01:17:20.400Z,12.36
2017-10-16T01:19:51.570Z,12.32
2017-10-16T01:22:22.859Z,12.30
2017-10-16T01:24:54.453Z,12.37
2017-10-16T01:27:25.944Z,12.39
2017-10-16T01:29:57.308Z,12.35
2017-10-16T01:32:28.927Z,12.34
2017-10-16T01:34:59.745Z,12.31
2017-10-16T01:37:30.718Z,12.37
2017-10-16T01:40:01.873Z,12.36
2017-10-16T01:42:33.218Z,12.34
2017-10-16T01:45:04.746Z,12.32
2017-10-16T01:47:35.854Z,12.39
2017-10-16T01:50:07.052Z,12.42
2017-10-16T01:52:38.395Z,12.36
2017-10-16T01:55:11.742Z,12.34
2017-10-16T01:58:03.966Z,12.35
2017-10-16T02:00:43.457Z,12.30
2017-10-16T02:03:17.038Z,12.27
2017-10-16T02:05:48.722Z,12.32
2017-10-16T02:08:20.033Z,12.27
2017-10-16T02:10:55.153Z,12.24
2017-10-16T02:13:26.306Z,12.22
2017-10-16T02:15:57.702Z,12.20
2017-10-16T02:18:28.517Z,12.20
2017-10-16T02:20:59.969Z,12.17
2017-10-16T02:23:31.482Z,12.15
2017-10-16T02:26:02.633Z,12.14
2017-10-16T02:28:33.632Z,12.18
2017-10-16T02:31:04.982Z,12.19
2017-10-16T02:33:36.268Z,12.17
2017-10-16T02:36:07.182Z,12.25
2017-10-16T02:38:38.037Z,12.31
2017-10-16T02:41:12.811Z,12.33
2017-10-16T02:43:44.393Z,12.27
2017-10-16T02:46:17.050Z,12.25
2017-10-16T02:48:48.055Z,12.20
2017-10-16T02:51:19.294Z,12.18
2017-10-16T02:53:50.384Z,12.15
2017-10-16T02:56:21.552Z,12.12
2017-10-16T02:58:52.447Z,12.14
2017-10-16T03:01:23.333Z,12.16
2017-10-16T03:03:54.103Z,12.15
2017-10-16T03:06:25.726Z,12.21
2017-10-16T03:08:56.885Z,12.22
2017-10-16T03:11:27.938Z,12.33
2017-10-16T03:13:59.699Z,12.35
2017-10-16T03:16:30.362Z,12.36
2017-10-16T03:19:02.452Z,12.37
2017-10-16T03:21:33.818Z,12.42
2017-10-16T03:24:05.809Z,12.37
2017-10-16T03:26:37.099Z,12.32
2017-10-16T03:29:08.405Z,12.23
2017-10-16T03:31:39.439Z,12.34
2017-10-16T03:34:14.776Z,12.36
2017-10-16T03:36:46.173Z,12.38
2017-10-16T03:39:17.370Z,12.29
2017-10-16T03:41:48.584Z,12.21
2017-10-16T03:44:19.467Z,12.29
2017-10-16T03:46:51.053Z,12.31
2017-10-16T03:49:22.289Z,12.28
2017-10-16T03:51:53.452Z,12.22
2017-10-16T03:54:24.347Z,12.20
2017-10-16T03:56:55.505Z,12.13
2017-10-16T03:59:26.361Z,12.09
2017-10-16T04:01:57.420Z,11.74
2017-10-16T04:04:29.783Z,11.13
2017-10-16T04:07:00.778Z,11.43
2017-10-16T04:09:32.725Z,11.10
2017-10-16T04:12:03.879Z,11.26
2017-10-16T04:14:34.995Z,10.92
2017-10-16T04:17:06.562Z,11.16
2017-10-16T04:19:37.524Z,11.20
2017-10-16T04:22:11.088Z,11.22
2017-10-16T04:24:42.813Z,11.37
2017-10-16T04:27:17.858Z,11.43
2017-10-16T04:29:52.405Z,11.05
2017-10-16T04:35:00.302Z,11.11
2017-10-16T04:37:32.667Z,11.03
2017-10-16T04:40:04.242Z,11.03
2017-10-16T04:45:25.738Z,10.75
2017-10-16T04:47:57.877Z,11.02
2017-10-16T04:50:28.747Z,11.10
2017-10-16T04:53:01.233Z,11.11
2017-10-16T04:55:32.842Z,11.01
2017-10-16T04:58:03.589Z,10.98
2017-10-16T05:00:34.164Z,10.74
2017-10-16T05:03:05.296Z,10.75
2017-10-16T05:05:38.019Z,10.86
2017-10-16T05:08:14.304Z,10.91
2017-10-16T05:10:45.621Z,10.93
2017-10-16T05:13:17.232Z,10.96
2017-10-16T05:15:48.900Z,11.17
2017-10-16T05:18:20.116Z,11.26
2017-10-16T05:20:50.792Z,11.38
2017-10-16T05:23:23.009Z,11.65
2017-10-16T05:25:54.050Z,12.02
2017-10-16T05:28:24.568Z,12.01
2017-10-16T05:30:55.041Z,11.81
2017-10-16T05:33:25.621Z,11.58
2017-10-16T05:36:05.747Z,11.55
2017-10-16T05:38:36.633Z,11.48
2017-10-16T05:41:07.949Z,10.93
2017-10-16T05:43:38.575Z,10.78
2017-10-16T05:46:13.330Z,10.94
2017-10-16T05:48:45.112Z,10.75
2017-10-16T05:51:23.533Z,11.05
2017-10-16T05:53:58.135Z,11.17
2017-10-16T05:56:29.900Z,11.21
2017-10-16T05:59:00.827Z,11.20
2017-10-16T06:01:33.758Z,11.23
2017-10-16T06:04:04.430Z,11.28
2017-10-16T06:06:39.866Z,11.34
2017-10-16T06:09:10.844Z,11.18
2017-10-16T06:11:44.091Z,10.84
2017-10-16T06:14:14.772Z,10.97
2017-10-16T06:16:48.576Z,10.96
2017-10-16T06:19:21.264Z,11.14
2017-10-16T06:21:58.962Z,11.14
2017-10-16T06:24:42.891Z,11.21
2017-10-16T06:27:18.946Z,11.28
2017-10-16T06:29:50.149Z,11.39
2017-10-16T06:32:21.315Z,11.50
2017-10-16T06:34:52.183Z,11.53
2017-10-16T06:37:23.289Z,11.56
2017-10-16T06:39:54.842Z,11.63
2017-10-16T06:42:26.605Z,11.70
2017-10-16T06:44:57.658Z,11.71
2017-10-16T06:47:28.265Z,11.73
2017-10-16T06:50:00.581Z,11.69
2017-10-16T06:52:33.793Z,11.70
2017-10-16T06:55:04.587Z,11.74
2017-10-16T06:57:35.241Z,11.86
2017-10-16T07:00:06.189Z,11.97
2017-10-16T07:02:36.659Z,11.96
2017-10-16T07:05:09.863Z,12.12
2017-10-16T07:07:42.087Z,12.27
2017-10-16T07:10:16.110Z,12.41
2017-10-16T07:12:47.326Z,12.50
2017-10-16T07:15:18.790Z,12.69
2017-10-16T07:17:50.597Z,12.83
2017-10-16T07:20:24.900Z,13.05
2017-10-16T07:22:58.011Z,13.16
2017-10-16T07:25:31.108Z,13.28
2017-10-16T07:28:06.799Z,13.42
2017-10-16T07:30:39.510Z,13.48
2017-10-16T07:33:19.507Z,13.58
2017-10-16T07:35:52.435Z,13.69
2017-10-16T07:38:24.261Z,13.74
2017-10-16T07:40:57.953Z,13.89
2017-10-16T07:43:30.119Z,13.95
2017-10-16T07:46:04.199Z,14.29
2017-10-16T07:48:35.942Z,14.28
2017-10-16T07:51:17.533Z,14.45
2017-10-16T07:53:48.319Z,14.43
2017-10-16T07:56:20.260Z,14.69
2017-10-16T07:58:51.721Z,15.03
2017-10-16T08:01:22.424Z,15.23
2017-10-16T08:03:54.495Z,15.31
2017-10-16T08:06:26.078Z,15.55
2017-10-16T08:08:57.803Z,15.96
2017-10-16T08:11:29.135Z,16.22
2017-10-16T08:14:01.881Z,16.47
2017-10-16T08:16:34.650Z,16.64
2017-10-16T08:19:09.401Z,16.76
2017-10-16T08:21:44.556Z,17.05
2017-10-16T08:24:20.401Z,17.19
2017-10-16T08:26:57.400Z,17.25
2017-10-16T08:29:28.775Z,17.46
2017-10-16T08:32:11.450Z,17.67
2017-10-16T08:34:44.283Z,17.63
2017-10-16T08:40:04.382Z,17.36
2017-10-16T08:42:35.998Z,17.81
2017-10-16T08:45:15.119Z,18.10
2017-10-16T08:47:48.224Z,17.95
2017-10-16T08:50:21.493Z,17.87
2017-10-16T08:52:55.446Z,18.01
2017-10-16T08:55:26.791Z,18.08
2017-10-16T08:57:58.124Z,18.25
2017-10-16T09:00:32.622Z,18.12
2017-10-16T09:03:03.981Z,18.27
2017-10-16T09:05:37.458Z,18.47
2017-10-16T09:08:14.570Z,18.56
2017-10-16T09:10:45.660Z,19.17
2017-10-16T09:13:17.868Z,19.06
2017-10-16T09:15:49.470Z,19.22
2017-10-16T09:18:20.232Z,19.21
2017-10-16T09:20:52.083Z,19.27
2017-10-16T09:23:23.030Z,19.57
2017-10-16T09:25:56.947Z,19.60
2017-10-16T09:28:30.627Z,19.74
2017-10-16T09:31:01.515Z,19.86
2017-10-16T09:33:33.089Z,20.22
2017-10-16T09:36:06.585Z,20.14
2017-10-16T09:38:39.334Z,20.27
2017-10-16T09:41:14.581Z,20.52
2017-10-16T09:43:53.022Z,20.59
2017-10-16T09:46:32.622Z,20.51
2017-10-16T09:49:06.374Z,20.59
2017-10-16T09:51:41.068Z,20.72
2017-10-16T09:54:12.929Z,20.48
2017-10-16T09:56:48.168Z,21.08
2017-10-16T09:59:25.654Z,20.65
2017-10-16T10:02:01.728Z,20.90
2017-10-16T10:04:37.308Z,21.40
2017-10-16T10:07:12.105Z,21.44
2017-10-16T10:09:44.858Z,21.84
2017-10-16T10:12:22.675Z,21.64
2017-10-16T10:15:00.540Z,21.43
2017-10-16T10:17:31.807Z,21.76
2017-10-16T10:20:15.178Z,21.77
2017-10-16T10:22:51.494Z,21.91
2017-10-16T10:25:22.955Z,22.07
2017-10-16T10:27:57.651Z,21.70
2017-10-16T10:30:34.806Z,22.01
2017-10-16T10:33:05.932Z,22.33
2017-10-16T10:35:36.394Z,22.10
2017-10-16T10:38:10.285Z,22.06
2017-10-16T10:40:50.249Z,22.33
2017-10-16T10:43:26.675Z,22.16
2017-10-16T10:45:57.728Z,22.98
2017-10-16T10:48:33.091Z,23.01
2017-10-16T10:51:03.824Z,23.13
2017-10-16T10:53:40.086Z,23.31
2017-10-16T10:56:11.718Z,23.25
2017-10-16T10:58:43.175Z,23.46
2017-10-16T11:01:17.316Z,23.24
2017-10-16T11:03:58.862Z,23.03
2017-10-16T11:06:36.922Z,22.94
2017-10-16T11:09:10.604Z,22.64
2017-10-16T11:11:42.274Z,22.86
2017-10-16T11:14:13.874Z,22.58
2017-10-16T11:16:45.256Z,22.78
2017-10-16T11:19:18.012Z,22.75
2017-10-16T11:21:49.661Z,23.34
2017-10-16T11:24:20.993Z,23.37
2017-10-16T11:26:52.824Z,23.78
2017-10-16T11:29:24.972Z,23.91
2017-10-16T11:31:57.012Z,23.77
2017-10-16T11:34:28.030Z,23.34
2017-10-16T11:37:00.753Z,23.25
2017-10-16T11:39:31.949Z,23.20
2017-10-16T11:42:06.002Z,23.16
2017-10-16T11:44:37.680Z,22.93
2017-10-16T11:47:09.433Z,23.33
2017-10-16T11:49:41.086Z,23.09
2017-10-16T11:52:12.529Z,23.03
2017-10-16T11:54:44.417Z,22.87
2017-10-16T11:57:15.393Z,22.79
2017-10-16T11:59:46.674Z,23.05
2017-10-16T12:02:17.582Z,22.66
2017-10-16T12:04:48.999Z,22.61
2017-10-16T12:12:52.404Z,23.04
2017-10-16T12:15:24.410Z,23.15
2017-10-16T12:18:02.104Z,23.43
2017-10-16T12:20:33.610Z,23.98
2017-10-16T12:23:06.230Z,23.21
2017-10-16T12:25:37.984Z,23.79
2017-10-16T12:28:09.013Z,23.47
2017-10-16T12:30:40.664Z,23.45
2017-10-16T12:33:12.850Z,23.20
2017-10-16T12:35:44.114Z,23.37
2017-10-16T12:38:16.552Z,23.62
2017-10-16T12:40:47.315Z,23.66
2017-10-16T12:43:18.869Z,23.81
2017-10-16T12:45:50.144Z,23.21
2017-10-16T12:48:22.450Z,22.99
2017-10-16T12:50:53.089Z,23.68
2017-10-16T12:53:26.336Z,23.35
2017-10-16T12:55:57.746Z,24.08
2017-10-16T12:58:29.044Z,24.39
2017-10-16T13:01:00.692Z,24.21
2017-10-16T13:03:33.439Z,23.89
2017-10-16T13:06:04.494Z,24.01
2017-10-16T13:08:35.294Z,24.02
2017-10-16T13:11:08.006Z,23.76
2017-10-16T13:13:40.828Z,23.69
2017-10-16T13:16:12.052Z,24.04
2017-10-16T13:18:43.277Z,23.81
2017-10-16T13:21:15.530Z,23.90
2017-10-16T13:23:46.300Z,23.84
2017-10-16T13:26:17.171Z,24.08
2017-10-16T13:28:48.597Z,23.62
2017-10-16T13:31:19.790Z,23.55
2017-10-16T13:33:51.794Z,23.48
2017-10-16T13:36:30.058Z,23.59
2017-10-16T13:39:25.064Z,23.56
2017-10-16T13:42:09.602Z,23.76
2017-10-16T13:45:03.331Z,23.62
2017-10-16T13:47:39.348Z,23.49
2017-10-16T13:50:13.844Z,23.54
2017-10-16T13:55:25.716Z,23.55
2017-10-16T13:58:03.167Z,23.50
2017-10-16T14:00:34.710Z,23.65
2017-10-16T14:03:05.343Z,23.57
2017-10-16T14:05:36.736Z,23.43
2017-10-16T14:08:09.323Z,23.41
2017-10-16T14:10:41.700Z,23.29
2017-10-16T14:13:13.021Z,23.31
2017-10-16T14:15:45.043Z,23.46
2017-10-16T14:18:15.902Z,23.48
2017-10-16T14:20:46.653Z,23.21
2017-10-16T14:23:22.588Z,23.21
2017-10-16T14:25:57.301Z,23.25
2017-10-16T14:30:47.583Z,23.06
2017-10-16T14:37:24.728Z,23.11
2017-10-16T14:49:15.628Z,22.74
2017-10-16T14:51:53.626Z,22.74
2017-10-16T14:54:27.473Z,22.69
2017-10-16T14:57:05.994Z,22.66
2017-10-16T14:59:40.270Z,22.54
2017-10-16T15:02:12.091Z,22.47
2017-10-16T15:04:43.434Z,22.50
2017-10-16T15:07:16.155Z,22.28
2017-10-16T15:09:52.608Z,22.25
2017-10-16T15:12:26.938Z,22.18
2017-10-16T15:15:10.941Z,22.14
2017-10-16T15:17:45.923Z,22.16
2017-10-16T15:20:22.178Z,22.05
2017-10-16T15:22:54.567Z,21.88
2017-10-16T15:25:29.767Z,21.72
2017-10-16T15:28:04.787Z,21.81
2017-10-16T15:30:42.265Z,21.53
2017-10-16T15:33:18.005Z,21.45
2017-10-16T15:35:51.685Z,21.25
2017-10-16T15:38:25.387Z,21.32
2017-10-16T15:40:58.166Z,21.24
2017-10-16T15:43:42.439Z,21.33
2017-10-16T15:46:18.137Z,21.15
2017-10-16T15:48:52.927Z,21.12
2017-10-16T15:51:26.739Z,20.85
2017-10-16T15:54:07.237Z,20.48
2017-10-16T15:56:44.681Z,20.42
2017-10-16T15:59:21.021Z,20.60
2017-10-16T16:01:53.669Z,20.68
2017-10-16T16:04:27.314Z,20.64
2017-10-16T16:07:00.894Z,20.70
2017-10-16T16:09:35.624Z,20.63
2017-10-16T16:12:10.219Z,20.58
2017-10-16T16:14:43.552Z,20.50
2017-10-16T16:17:19.040Z,20.46
2017-10-16T16:19:52.485Z,20.27
2017-10-16T16:22:25.260Z,19.59
2017-10-16T16:24:58.905Z,19.44
2017-10-16T16:27:29.761Z,19.71
2017-10-16T16:30:01.053Z,19.78
2017-10-16T16:32:37.737Z,19.76
2017-10-16T16:35:10.238Z,19.73
2017-10-16T16:37:42.737Z,19.69
2017-10-16T16:44:38.591Z,19.67
2017-10-16T16:50:36.788Z,19.43
2017-10-16T16:53:41.185Z,19.23
2017-10-16T16:56:12.372Z,19.06
2017-10-16T16:58:43.565Z,19.14
2017-10-16T17:01:14.730Z,19.20
2017-10-16T17:03:45.352Z,19.10
2017-10-16T17:06:16.487Z,19.07
2017-10-16T17:08:48.129Z,19.01
2017-10-16T17:11:20.180Z,18.88
2017-10-16T17:13:51.955Z,18.77
2017-10-16T17:16:24.154Z,18.74
2017-10-16T17:18:56.344Z,18.88
2017-10-16T17:21:29.654Z,18.86
2017-10-16T17:24:00.936Z,18.82
2017-10-16T17:26:58.493Z,18.65
2017-10-16T17:30:17.875Z,18.32
2017-10-16T17:33:36.486Z,18.39
2017-10-16T17:36:18.145Z,18.35
2017-10-16T17:38:49.553Z,18.30
2017-10-16T17:41:20.656Z,18.29
2017-10-16T17:43:51.838Z,18.32
2017-10-16T17:46:25.693Z,18.31
2017-10-16T17:48:57.997Z,18.26
2017-10-16T17:51:41.547Z,18.09
2017-10-16T17:54:15.209Z,17.73
2017-10-16T17:56:47.705Z,17.77
2017-10-16T17:59:22.073Z,17.81
2017-10-16T18:01:54.396Z,17.91
2017-10-16T18:04:26.469Z,17.91
2017-10-16T18:06:57.672Z,17.92
2017-10-16T18:09:29.113Z,17.87
2017-10-16T18:12:00.202Z,17.81
2017-10-16T18:14:33.125Z,17.74
2017-10-16T18:17:07.182Z,17.73
2017-10-16T18:19:40.031Z,17.79
2017-10-16T18:22:13.487Z,17.73
2017-10-16T18:24:50.115Z,17.73
2017-10-16T18:27:24.539Z,17.67
2017-10-16T18:29:57.470Z,17.39
2017-10-16T18:32:29.990Z,17.41
2017-10-16T18:35:13.473Z,17.29
2017-10-16T18:37:44.871Z,17.15
2017-10-16T18:40:26.963Z,17.11
2017-10-16T18:43:02.335Z,16.83
2017-10-16T18:45:39.010Z,16.83
2017-10-16T18:48:28.204Z,16.87
2017-10-16T18:51:02.713Z,16.76
2017-10-16T18:53:35.510Z,16.73
2017-10-16T18:56:07.350Z,16.74
2017-10-16T18:58:38.944Z,16.78
2017-10-16T19:01:10.085Z,16.76
2017-10-16T19:03:45.090Z,16.78
2017-10-16T19:06:17.642Z,16.72
2017-10-16T19:08:50.532Z,16.72
2017-10-16T19:11:24.809Z,16.82
2017-10-16T19:13:56.995Z,16.61
2017-10-16T19:16:29.264Z,16.51
2017-10-16T19:19:00.666Z,16.42
2017-10-16T19:21:33.238Z,16.52
2017-10-16T19:24:09.223Z,16.73
2017-10-16T19:26:43.754Z,16.28
2017-10-16T19:29:45.402Z,16.43
2017-10-16T19:32:19.270Z,16.20
2017-10-16T19:37:50.760Z,15.90
2017-10-16T19:40:24.283Z,15.83
2017-10-16T19:42:59.945Z,15.52
2017-10-16T19:46:38.936Z,15.60
2017-10-16T19:49:11.689Z,15.70
2017-10-16T19:51:43.552Z,15.73
2017-10-16T19:54:46.615Z,15.65
2017-10-16T19:58:09.789Z,15.47
2017-10-16T20:00:45.620Z,15.54
2017-10-16T20:03:18.981Z,15.29
2017-10-16T20:05:54.434Z,15.31
2017-10-16T20:08:38.888Z,15.44
2017-10-16T20:11:14.053Z,15.42
2017-10-16T20:13:45.797Z,15.46
2017-10-16T20:16:23.254Z,15.62
2017-10-16T20:18:55.069Z,15.61
2017-10-16T20:21:27.561Z,15.63
2017-10-16T20:23:58.553Z,15.64
2017-10-16T20:26:29.141Z,15.73
2017-10-16T20:29:00.001Z,15.72
2017-10-16T20:31:30.777Z,15.79
2017-10-16T20:34:03.010Z,15.76
2017-10-16T20:36:36.602Z,15.82
2017-10-16T20:39:08.004Z,15.70
2017-10-16T20:41:40.690Z,15.90
2017-10-16T20:44:12.294Z,15.98
2017-10-16T20:46:43.642Z,15.89
2017-10-16T20:49:15.085Z,15.72
2017-10-16T20:51:48.093Z,15.69
2017-10-16T20:54:20.344Z,15.65
2017-10-16T20:56:51.634Z,15.66
2017-10-16T20:59:23.096Z,15.60
2017-10-16T21:01:54.642Z,15.46
2017-10-16T21:04:25.692Z,15.38
2017-10-16T21:06:56.240Z,15.24
2017-10-16T21:09:28.047Z,15.15
2017-10-16T21:11:59.359Z,15.16
2017-10-16T21:14:30.826Z,14.98
2017-10-16T21:17:02.650Z,14.90
2017-10-16T21:19:33.266Z,14.87
2017-10-16T21:22:04.263Z,14.88
2017-10-16T21:24:37.309Z,14.88
2017-10-16T21:27:08.032Z,14.86
2017-10-16T21:29:39.731Z,14.84
2017-10-16T21:32:12.243Z,14.63
2017-10-16T21:34:45.359Z,14.30
2017-10-16T21:37:17.077Z,14.59
2017-10-16T21:39:48.119Z,14.26
2017-10-16T21:42:19.997Z,14.15
2017-10-16T21:44:51.774Z,14.37
2017-10-16T21:47:22.498Z,14.05
2017-10-16T21:49:55.681Z,14.34
2017-10-16T21:52:27.701Z,14.19
2017-10-16T21:55:00.025Z,14.39
2017-10-16T21:57:32.117Z,14.44
2017-10-16T22:00:05.838Z,14.43
2017-10-16T22:02:37.765Z,14.25
2017-10-16T22:05:11.187Z,14.31
2017-10-16T22:07:44.001Z,14.32
2017-10-16T22:10:16.044Z,14.35
2017-10-16T22:12:47.041Z,14.34
2017-10-16T22:15:21.664Z,14.28
2017-10-16T22:17:54.252Z,14.31
2017-10-16T22:20:25.963Z,14.37
2017-10-16T22:22:57.058Z,14.36
2017-10-16T22:25:28.551Z,14.40
2017-10-16T22:28:01.888Z,14.44
2017-10-16T22:30:34.158Z,14.48
2017-10-16T22:33:06.041Z,14.43
2017-10-16T22:35:38.004Z,14.36
2017-10-16T22:38:09.169Z,14.32
2017-10-16T22:40:41.879Z,14.00
2017-10-16T22:43:12.868Z,14.04
2017-10-16T22:45:45.288Z,14.13
2017-10-16T22:48:17.015Z,14.04
2017-10-16T22:50:53.506Z,14.04
2017-10-16T22:53:24.527Z,13.92
2017-10-16T22:55:55.974Z,13.88
2017-10-16T22:58:27.749Z,13.94
2017-10-16T23:00:59.343Z,13.95
2017-10-16T23:03:31.602Z,13.96
2017-10-16T23:06:02.609Z,13.94
2017-10-16T23:08:35.426Z,13.74
2017-10-16T23:11:06.746Z,13.69
2017-10-16T23:13:38.214Z,13.71
2017-10-16T23:16:09.614Z,13.77
2017-10-16T23:18:42.021Z,13.70
2017-10-16T23:21:14.597Z,13.58
2017-10-16T23:23:47.162Z,13.64
2017-10-16T23:26:19.085Z,13.21
2017-10-16T23:28:51.215Z,13.46
2017-10-16T23:31:22.785Z,13.52
2017-10-16T23:33:54.357Z,13.19
2017-10-16T23:36:25.021Z,13.20
2017-10-16T23:38:55.657Z,13.24
2017-10-16T23:41:27.295Z,13.09
2017-10-16T23:43:58.924Z,13.20
2017-10-16T23:46:31.292Z,13.07
2017-10-16T23:49:02.423Z,13.05
2017-10-16T23:51:33.751Z,13.02
2017-10-16T23:54:05.249Z,12.90
2017-10-16T23:56:36.587Z,12.94
2017-10-16T23:59:07.822Z,12.84
